Time;durP1;ratioP1;P1;durP2;ratioP2;P2;SDS_P1;SDS_P2;PMS_P1;PMS_P2;Temp;Humidity;BMP_temperature;BMP_pressure;BME280_temperature;BME280_humidity;BME280_pressure;Samples;Min_cycle;Max_cycle;Signal;HPM_P1;HPM_P2
2021/11/29 00:00:29;;;;;;;1.27;0.70;;;2.30;99.90;;;;;;4972841;28;20641;-76
2021/11/29 00:02:59;;;;;;;2.03;0.70;;;2.30;99.90;;;;;;4973588;28;20213;-76
2021/11/29 00:05:27;;;;;;;1.03;0.50;;;2.30;99.90;;;;;;4972845;28;20674;-75
2021/11/29 00:07:55;;;;;;;3.20;0.90;;;2.30;99.90;;;;;;4973346;28;20265;-76
2021/11/29 00:10:24;;;;;;;1.20;0.97;;;2.40;99.90;;;;;;4972756;28;20212;-76
2021/11/29 00:12:51;;;;;;;3.10;1.23;;;2.30;99.90;;;;;;4973473;28;20213;-78
2021/11/29 00:15:18;;;;;;;2.93;0.97;;;2.30;99.90;;;;;;4972981;28;20209;-74
2021/11/29 00:17:45;;;;;;;2.17;1.00;;;2.30;99.90;;;;;;4973414;28;20209;-76
2021/11/29 00:20:14;;;;;;;1.60;0.90;;;2.30;99.90;;;;;;4973555;28;20214;-77
2021/11/29 00:22:41;;;;;;;1.80;0.80;;;2.20;99.90;;;;;;4972496;28;20210;-77
2021/11/29 00:25:09;;;;;;;5.20;1.03;;;2.20;99.90;;;;;;4973153;28;20217;-75
2021/11/29 00:27:38;;;;;;;2.43;0.70;;;2.20;99.90;;;;;;4972386;28;20217;-76
2021/11/29 00:30:07;;;;;;;0.83;0.60;;;2.20;99.90;;;;;;4972701;28;20241;-73
2021/11/29 00:32:34;;;;;;;6.03;2.90;;;2.20;99.90;;;;;;4972386;28;20237;-76
2021/11/29 00:35:01;;;;;;;3.13;0.70;;;2.10;99.90;;;;;;4972772;28;20205;-75
2021/11/29 00:37:28;;;;;;;3.70;1.37;;;2.10;99.90;;;;;;4972198;28;20257;-77
2021/11/29 00:39:55;;;;;;;1.63;0.80;;;2.10;99.90;;;;;;4972863;28;20225;-74
2021/11/29 00:42:22;;;;;;;2.80;0.50;;;2.10;99.90;;;;;;4972050;28;20209;-75
2021/11/29 00:44:51;;;;;;;2.03;0.93;;;2.10;99.90;;;;;;4972139;28;20210;-73
2021/11/29 00:47:18;;;;;;;1.93;0.80;;;2.10;99.90;;;;;;4972474;28;20226;-76
2021/11/29 00:49:46;;;;;;;4.03;0.83;;;2.10;99.90;;;;;;4972555;28;20209;-71
2021/11/29 00:52:13;;;;;;;2.30;1.40;;;2.20;99.90;;;;;;4972737;28;20229;-78
2021/11/29 00:54:39;;;;;;;1.93;0.77;;;2.10;99.90;;;;;;4971939;28;20217;-76
2021/11/29 00:57:06;;;;;;;2.83;1.10;;;2.00;99.90;;;;;;4972457;28;20217;-77
2021/11/29 00:59:34;;;;;;;6.30;1.07;;;2.00;99.90;;;;;;4971905;28;20210;-75
2021/11/29 01:02:02;;;;;;;5.87;1.10;;;2.00;99.90;;;;;;4972170;28;20256;-77
2021/11/29 01:04:29;;;;;;;1.40;0.90;;;2.00;99.90;;;;;;4971894;28;20213;-77
2021/11/29 01:06:56;;;;;;;3.23;1.40;;;2.10;99.90;;;;;;4971843;28;20264;-73
2021/11/29 01:09:23;;;;;;;2.03;0.80;;;2.20;99.90;;;;;;4971746;28;20213;-78
2021/11/29 01:11:50;;;;;;;6.87;1.20;;;2.20;99.90;;;;;;4971725;28;20237;-73
2021/11/29 01:14:17;;;;;;;4.10;1.27;;;2.20;99.90;;;;;;4971941;28;20260;-68
2021/11/29 01:16:44;;;;;;;1.60;0.80;;;2.10;99.90;;;;;;4972017;28;20212;-75
2021/11/29 01:19:12;;;;;;;2.17;0.93;;;2.10;99.90;;;;;;4971685;28;20205;-78
2021/11/29 01:21:39;;;;;;;2.47;0.83;;;2.20;99.90;;;;;;4971892;28;20217;-77
2021/11/29 01:24:06;;;;;;;2.27;1.37;;;2.20;99.90;;;;;;4971993;28;20213;-77
2021/11/29 01:26:34;;;;;;;3.70;1.00;;;2.20;99.90;;;;;;4971283;28;20206;-74
2021/11/29 01:29:01;;;;;;;2.40;1.63;;;2.20;99.90;;;;;;4971759;28;20213;-74
2021/11/29 01:31:28;;;;;;;0.93;0.73;;;2.00;99.90;;;;;;4971379;28;20381;-75
2021/11/29 01:33:55;;;;;;;2.03;1.00;;;2.00;99.90;;;;;;4971807;28;20292;-76
2021/11/29 01:36:23;;;;;;;2.70;0.90;;;1.90;99.90;;;;;;4971341;28;20241;-73
2021/11/29 01:38:50;;;;;;;1.87;1.07;;;2.00;99.90;;;;;;4971722;28;20209;-76
2021/11/29 01:41:17;;;;;;;1.50;0.93;;;1.90;99.90;;;;;;4971618;28;20205;-73
2021/11/29 01:43:46;;;;;;;16.33;2.87;;;1.90;99.90;;;;;;4972142;28;20206;-69
2021/11/29 01:46:13;;;;;;;1.57;0.80;;;1.90;99.90;;;;;;4971641;28;20209;-78
2021/11/29 01:48:40;;;;;;;1.00;1.00;;;1.90;99.90;;;;;;4971516;28;20209;-71
2021/11/29 01:51:07;;;;;;;1.93;0.90;;;1.90;99.90;;;;;;4975720;28;20252;-73
2021/11/29 01:53:36;;;;;;;3.07;0.50;;;1.80;99.90;;;;;;4975559;28;20205;-75
2021/11/29 01:56:03;;;;;;;2.00;1.10;;;1.80;99.90;;;;;;4975274;28;20209;-72
2021/11/29 01:58:33;;;;;;;2.73;0.77;;;1.70;99.90;;;;;;4974861;28;20213;-73
2021/11/29 02:01:05;;;;;;;1.60;1.00;;;1.70;99.90;;;;;;4975410;28;20236;-73
2021/11/29 02:03:33;;;;;;;5.83;2.50;;;1.70;99.90;;;;;;4975107;28;20205;-77
2021/11/29 02:06:00;;;;;;;2.03;0.90;;;1.60;99.90;;;;;;4975761;28;20205;-74
2021/11/29 02:08:27;;;;;;;3.00;1.00;;;1.60;99.90;;;;;;4975050;28;20271;-75
2021/11/29 02:10:55;;;;;;;3.53;1.67;;;1.60;99.90;;;;;;4973038;28;20260;-75
2021/11/29 02:13:22;;;;;;;1.90;1.20;;;1.60;99.90;;;;;;4974996;28;20264;-76
2021/11/29 02:15:51;;;;;;;2.20;1.40;;;1.70;99.90;;;;;;4975129;28;20209;-70
2021/11/29 02:18:21;;;;;;;2.50;1.00;;;1.80;99.90;;;;;;4975405;28;20296;-74
2021/11/29 02:21:08;;;;;;;5.07;1.10;;;1.80;99.90;;;;;;4975550;28;20211;-76
2021/11/29 02:23:36;;;;;;;3.10;1.07;;;1.90;99.90;;;;;;4974669;28;20210;-75
2021/11/29 02:26:03;;;;;;;1.73;0.70;;;1.90;99.90;;;;;;4974993;28;20639;-74
2021/11/29 02:28:31;;;;;;;3.30;0.90;;;2.00;99.90;;;;;;4974623;28;20264;-75
2021/11/29 02:30:58;;;;;;;3.33;1.07;;;2.10;99.90;;;;;;4975237;28;20210;-74
2021/11/29 02:33:28;;;;;;;1.67;0.90;;;2.10;99.90;;;;;;4974753;28;20267;-78
2021/11/29 02:35:55;;;;;;;1.50;0.90;;;2.10;99.90;;;;;;4974682;28;20241;-75
2021/11/29 02:38:23;;;;;;;1.63;0.67;;;2.20;99.90;;;;;;4974460;28;20213;-73
2021/11/29 02:40:51;;;;;;;1.37;0.50;;;2.20;99.90;;;;;;4974620;28;20209;-77
2021/11/29 02:43:19;;;;;;;1.60;0.90;;;2.20;99.90;;;;;;4975243;28;20217;-78
2021/11/29 02:45:45;;;;;;;1.80;1.10;;;2.30;99.90;;;;;;4974934;28;20216;-78
2021/11/29 02:48:12;;;;;;;1.67;0.70;;;2.30;99.90;;;;;;4975128;28;20221;-76
2021/11/29 02:50:40;;;;;;;1.13;0.83;;;2.30;99.90;;;;;;4974063;28;20264;-75
2021/11/29 02:53:10;;;;;;;3.93;2.13;;;2.30;99.90;;;;;;4974919;28;20233;-76
2021/11/29 02:55:39;;;;;;;4.00;0.93;;;2.40;99.90;;;;;;4974238;28;20237;-75
2021/11/29 02:58:06;;;;;;;1.57;0.83;;;2.40;99.90;;;;;;4974666;28;20341;-77
2021/11/29 03:00:34;;;;;;;3.67;0.90;;;2.50;99.90;;;;;;4972727;28;20685;-75
2021/11/29 03:03:07;;;;;;;3.47;1.17;;;2.50;99.90;;;;;;4974115;28;20213;-73
2021/11/29 03:05:34;;;;;;;2.90;0.97;;;2.50;99.90;;;;;;4974293;28;20205;-77
2021/11/29 03:08:02;;;;;;;5.73;0.93;;;2.50;99.90;;;;;;4974001;28;20210;-77
2021/11/29 03:10:29;;;;;;;1.00;0.80;;;2.50;99.90;;;;;;4974203;28;20276;-75
2021/11/29 03:12:57;;;;;;;2.73;0.87;;;2.50;99.90;;;;;;4974200;28;20236;-77
2021/11/29 03:15:24;;;;;;;0.80;0.60;;;2.50;99.90;;;;;;4973966;28;20210;-77
2021/11/29 03:17:52;;;;;;;2.50;0.77;;;2.60;99.90;;;;;;4973891;28;20619;-78
2021/11/29 03:20:19;;;;;;;3.07;1.30;;;2.60;99.90;;;;;;4974238;28;20205;-68
2021/11/29 03:22:46;;;;;;;2.17;0.80;;;2.60;99.90;;;;;;4974409;28;20268;-77
2021/11/29 03:25:14;;;;;;;1.00;0.83;;;2.60;99.90;;;;;;4974167;28;20256;-76
2021/11/29 03:27:41;;;;;;;4.43;0.70;;;2.50;99.90;;;;;;4973493;28;20631;-75
2021/11/29 03:30:11;;;;;;;1.43;1.00;;;2.60;99.90;;;;;;4973625;28;20278;-78
2021/11/29 03:32:39;;;;;;;2.00;0.70;;;2.60;99.90;;;;;;4973392;28;20296;-71
2021/11/29 03:35:09;;;;;;;2.70;0.87;;;2.50;99.90;;;;;;4973674;28;20209;-78
2021/11/29 03:37:37;;;;;;;1.30;0.67;;;2.50;99.90;;;;;;4973677;28;20215;-74
2021/11/29 03:40:06;;;;;;;8.87;1.47;;;2.50;99.90;;;;;;4973520;28;20759;-74
2021/11/29 03:42:33;;;;;;;1.60;1.10;;;2.50;99.90;;;;;;4973285;28;20206;-77
2021/11/29 03:45:02;;;;;;;2.90;0.93;;;2.40;99.90;;;;;;4973543;28;20210;-77
2021/11/29 03:47:30;;;;;;;3.60;0.90;;;2.50;99.90;;;;;;4973019;28;20213;-72
2021/11/29 03:49:57;;;;;;;4.17;1.13;;;2.40;99.90;;;;;;4973801;28;20217;-76
2021/11/29 03:52:24;;;;;;;2.23;1.00;;;2.40;99.90;;;;;;4972816;28;20221;-75
2021/11/29 03:54:52;;;;;;;2.87;1.33;;;2.30;99.90;;;;;;4973683;28;20209;-74
2021/11/29 03:57:19;;;;;;;3.77;0.90;;;2.20;99.90;;;;;;4972765;28;20665;-68
2021/11/29 03:59:47;;;;;;;2.43;1.37;;;2.10;99.90;;;;;;4973779;28;20728;-74
2021/11/29 04:02:14;;;;;;;2.77;1.40;;;2.00;99.90;;;;;;4973383;28;20214;-77
2021/11/29 04:04:42;;;;;;;4.17;1.10;;;2.00;99.90;;;;;;4972960;28;20645;-76
2021/11/29 04:07:09;;;;;;;3.07;1.20;;;1.90;99.90;;;;;;4973347;28;20288;-73
2021/11/29 04:09:37;;;;;;;1.70;0.63;;;1.90;99.90;;;;;;4972944;28;20210;-74
2021/11/29 04:12:05;;;;;;;3.07;1.13;;;2.00;99.90;;;;;;4972574;28;20229;-70
2021/11/29 04:14:32;;;;;;;2.20;1.23;;;2.00;99.90;;;;;;4972479;28;20214;-76
2021/11/29 04:16:59;;;;;;;36.60;4.13;;;1.90;99.90;;;;;;4973383;28;20274;-74
2021/11/29 04:19:26;;;;;;;1.97;1.53;;;1.90;99.90;;;;;;4972757;28;20268;-76
2021/11/29 04:21:55;;;;;;;1.20;0.73;;;1.90;99.90;;;;;;4972742;28;20621;-76
2021/11/29 04:24:23;;;;;;;4.53;0.90;;;1.90;99.90;;;;;;4972448;28;20670;-74
2021/11/29 04:26:52;;;;;;;4.80;1.20;;;1.90;99.90;;;;;;4972780;28;20202;-73
2021/11/29 04:29:23;;;;;;;1.23;1.00;;;1.80;99.90;;;;;;4972577;28;20213;-73
2021/11/29 04:31:50;;;;;;;2.70;1.07;;;1.80;99.90;;;;;;4972728;28;20208;-74
2021/11/29 04:34:17;;;;;;;3.10;1.87;;;1.80;99.90;;;;;;4973528;28;20287;-76
2021/11/29 04:36:44;;;;;;;2.67;1.37;;;1.80;99.90;;;;;;4972609;28;20264;-75
2021/11/29 04:39:13;;;;;;;5.07;1.43;;;1.70;99.90;;;;;;4972644;28;20673;-76
2021/11/29 04:41:41;;;;;;;3.53;1.20;;;1.70;99.90;;;;;;4972557;28;20256;-74
2021/11/29 04:44:08;;;;;;;2.57;1.23;;;1.60;99.90;;;;;;4972340;28;20692;-74
2021/11/29 04:46:35;;;;;;;5.57;1.37;;;1.60;99.90;;;;;;4972303;28;20247;-76
2021/11/29 04:49:03;;;;;;;4.00;1.40;;;1.60;99.90;;;;;;4972302;28;20287;-78
2021/11/29 04:51:30;;;;;;;1.90;1.23;;;1.50;99.90;;;;;;4971736;28;20268;-70
2021/11/29 04:53:57;;;;;;;1.60;1.40;;;1.50;99.90;;;;;;4972123;28;20655;-75
2021/11/29 04:56:25;;;;;;;1.40;1.10;;;1.40;99.90;;;;;;4972312;28;20214;-71
2021/11/29 04:58:54;;;;;;;1.73;1.23;;;1.40;99.90;;;;;;4972383;28;20217;-71
2021/11/29 05:01:21;;;;;;;2.97;1.20;;;1.40;99.90;;;;;;4972133;28;20288;-76
2021/11/29 05:03:48;;;;;;;3.40;1.30;;;1.50;99.90;;;;;;4971942;28;20639;-76
2021/11/29 05:06:15;;;;;;;3.47;1.70;;;1.50;99.90;;;;;;4972560;28;20208;-72
2021/11/29 05:08:42;;;;;;;6.93;1.80;;;1.60;99.90;;;;;;4971721;28;20677;-75
2021/11/29 05:11:09;;;;;;;3.23;1.60;;;1.70;99.90;;;;;;4972061;28;20209;-71
2021/11/29 05:13:37;;;;;;;3.57;2.17;;;1.70;99.90;;;;;;4971791;28;20240;-71
2021/11/29 05:16:05;;;;;;;1.83;1.53;;;1.70;99.90;;;;;;4971937;28;20205;-73
2021/11/29 05:18:32;;;;;;;3.90;1.80;;;1.80;99.90;;;;;;4971159;28;20205;-73
2021/11/29 05:20:59;;;;;;;3.83;1.90;;;1.80;99.90;;;;;;4971991;28;20249;-72
2021/11/29 05:23:26;;;;;;;2.10;1.50;;;1.70;99.90;;;;;;4971019;28;20210;-74
2021/11/29 05:25:53;;;;;;;4.70;1.90;;;1.80;99.90;;;;;;4972063;28;20213;-76
2021/11/29 05:28:20;;;;;;;3.43;1.30;;;1.80;99.90;;;;;;4971509;28;20213;-72
2021/11/29 05:30:48;;;;;;;1.50;1.30;;;1.80;99.90;;;;;;4972327;28;20252;-68
2021/11/29 05:33:16;;;;;;;1.83;1.50;;;1.80;99.90;;;;;;4971496;28;20233;-77
2021/11/29 05:35:43;;;;;;;2.30;1.40;;;1.80;99.90;;;;;;4971909;28;20206;-74
2021/11/29 05:38:10;;;;;;;10.17;3.53;;;1.90;99.90;;;;;;4971779;28;20268;-77
2021/11/29 05:40:37;;;;;;;1.97;1.63;;;1.90;99.90;;;;;;4971218;28;20736;-74
2021/11/29 05:43:04;;;;;;;1.63;1.53;;;1.90;99.90;;;;;;4971912;28;20218;-74
2021/11/29 05:45:31;;;;;;;2.70;1.00;;;2.00;99.90;;;;;;4971296;28;20252;-73
2021/11/29 05:47:59;;;;;;;4.00;1.77;;;2.00;99.90;;;;;;4971465;28;20276;-74
2021/11/29 05:50:26;;;;;;;3.77;1.67;;;2.00;99.90;;;;;;4971068;28;20263;-72
2021/11/29 05:52:53;;;;;;;2.10;1.90;;;2.10;99.90;;;;;;4971525;28;20574;-75
2021/11/29 05:55:20;;;;;;;2.43;1.50;;;2.20;99.90;;;;;;4971233;28;20220;-68
2021/11/29 05:57:47;;;;;;;3.10;1.90;;;2.20;99.90;;;;;;4971503;28;20213;-68
2021/11/29 06:00:17;;;;;;;2.57;2.37;;;2.20;99.90;;;;;;4971827;28;20264;-77
2021/11/29 06:02:44;;;;;;;3.43;1.80;;;2.10;99.90;;;;;;4971703;28;20213;-76
2021/11/29 06:05:14;;;;;;;2.33;1.77;;;2.10;99.90;;;;;;4972061;28;20211;-77
2021/11/29 06:07:41;;;;;;;2.93;1.83;;;2.10;99.90;;;;;;4971061;28;20268;-75
2021/11/29 06:10:10;;;;;;;4.03;1.77;;;2.10;99.90;;;;;;4971452;28;20681;-75
2021/11/29 06:12:37;;;;;;;4.27;1.33;;;2.10;99.90;;;;;;4971138;28;20236;-76
2021/11/29 06:15:06;;;;;;;2.23;1.40;;;2.20;99.90;;;;;;4971543;28;20213;-74
2021/11/29 06:17:33;;;;;;;3.97;1.87;;;2.20;99.90;;;;;;4970981;28;20703;-76
2021/11/29 06:20:00;;;;;;;4.83;1.90;;;2.20;99.90;;;;;;4971364;28;20209;-74
2021/11/29 06:22:29;;;;;;;3.80;1.60;;;2.20;99.90;;;;;;4971233;28;20205;-74
2021/11/29 06:24:56;;;;;;;3.67;1.50;;;2.30;99.90;;;;;;4971233;28;20578;-76
2021/11/29 06:27:22;;;;;;;1.90;1.40;;;2.20;99.90;;;;;;4970997;28;20217;-76
2021/11/29 06:29:50;;;;;;;2.47;1.90;;;2.20;99.90;;;;;;4971454;28;20268;-73
2021/11/29 06:32:17;;;;;;;5.10;1.97;;;2.30;99.90;;;;;;4971401;28;20205;-68
2021/11/29 06:34:45;;;;;;;2.33;1.30;;;2.30;99.90;;;;;;4972132;28;20209;-76
2021/11/29 06:37:13;;;;;;;4.37;2.20;;;2.20;99.90;;;;;;4974809;28;20206;-73
2021/11/29 06:39:41;;;;;;;2.87;1.67;;;2.30;99.90;;;;;;4974336;28;20590;-71
2021/11/29 06:42:09;;;;;;;4.13;1.70;;;2.30;99.90;;;;;;4974613;28;20256;-77
2021/11/29 06:44:37;;;;;;;3.07;2.00;;;2.30;99.90;;;;;;4974576;28;20220;-76
2021/11/29 06:47:04;;;;;;;2.13;1.73;;;2.30;99.90;;;;;;4974009;28;20255;-75
2021/11/29 06:49:31;;;;;;;3.87;1.43;;;2.30;99.90;;;;;;4974416;28;20264;-77
2021/11/29 06:52:02;;;;;;;2.70;1.90;;;2.30;99.90;;;;;;4974447;28;20213;-73
2021/11/29 06:54:31;;;;;;;6.07;2.47;;;2.30;99.90;;;;;;4974448;28;20235;-73
2021/11/29 06:57:00;;;;;;;2.77;2.07;;;2.30;99.90;;;;;;4974469;28;20692;-72
2021/11/29 06:59:28;;;;;;;2.97;2.00;;;2.30;99.90;;;;;;4974082;28;20236;-74
2021/11/29 07:01:56;;;;;;;2.80;1.90;;;2.30;99.90;;;;;;4974475;28;20220;-77
2021/11/29 07:04:23;;;;;;;4.77;2.10;;;2.30;99.90;;;;;;4973638;28;20676;-71
2021/11/29 07:06:51;;;;;;;5.13;2.63;;;2.30;99.90;;;;;;4974475;28;20205;-74
2021/11/29 07:09:18;;;;;;;3.20;2.20;;;2.30;99.90;;;;;;4974134;28;20689;-76
2021/11/29 07:11:45;;;;;;;6.03;2.33;;;2.30;99.90;;;;;;4974797;28;20206;-73
2021/11/29 07:14:14;;;;;;;4.07;2.27;;;2.30;99.90;;;;;;4974164;28;20590;-75
2021/11/29 07:16:46;;;;;;;3.70;2.03;;;2.30;99.90;;;;;;4973659;28;20625;-74
2021/11/29 07:19:14;;;;;;;2.30;2.10;;;2.30;99.90;;;;;;4974286;28;20740;-75
2021/11/29 07:21:41;;;;;;;2.47;1.97;;;2.40;99.90;;;;;;4973477;28;20205;-72
2021/11/29 07:24:10;;;;;;;1.67;1.53;;;2.40;99.90;;;;;;4974429;28;20268;-75
2021/11/29 07:26:37;;;;;;;4.87;2.83;;;2.40;99.90;;;;;;4973626;28;20210;-76
2021/11/29 07:29:04;;;;;;;3.70;2.60;;;2.40;99.90;;;;;;4973781;28;20741;-74
2021/11/29 07:31:34;;;;;;;4.20;2.33;;;2.40;99.90;;;;;;4973730;28;20213;-70
2021/11/29 07:34:01;;;;;;;3.40;2.20;;;2.50;99.90;;;;;;4960586;28;20229;-72
2021/11/29 07:36:28;;;;;;;3.23;2.07;;;2.50;99.90;;;;;;4973788;28;20217;-75
2021/11/29 07:38:55;;;;;;;6.63;2.40;;;2.60;99.90;;;;;;4973436;28;20209;-73
2021/11/29 07:41:23;;;;;;;2.57;2.37;;;2.50;99.90;;;;;;4973256;28;20206;-75
2021/11/29 07:43:50;;;;;;;3.00;2.40;;;2.60;99.90;;;;;;4973455;28;20205;-74
2021/11/29 07:46:18;;;;;;;2.20;1.70;;;2.60;99.90;;;;;;4973250;28;20634;-68
2021/11/29 07:48:46;;;;;;;2.57;2.27;;;2.60;99.90;;;;;;4973338;28;20295;-73
2021/11/29 07:51:13;;;;;;;3.00;1.90;;;2.70;99.90;;;;;;4973703;28;20265;-73
2021/11/29 07:53:40;;;;;;;4.93;1.73;;;2.70;99.90;;;;;;4973038;28;20237;-71
2021/11/29 07:56:07;;;;;;;3.07;1.50;;;2.80;99.90;;;;;;4973630;28;20218;-73
2021/11/29 07:58:34;;;;;;;3.43;2.33;;;2.90;99.90;;;;;;4972803;28;20209;-67
2021/11/29 08:01:02;;;;;;;3.23;2.00;;;2.90;99.90;;;;;;4972897;28;20640;-74
2021/11/29 08:03:29;;;;;;;11.57;2.80;;;3.00;99.90;;;;;;4972935;28;20209;-68
2021/11/29 08:05:57;;;;;;;4.90;2.17;;;3.00;99.90;;;;;;4973160;28;20264;-68
2021/11/29 08:08:24;;;;;;;7.87;3.17;;;3.00;99.90;;;;;;4973097;28;20276;-68
2021/11/29 08:10:51;;;;;;;3.50;1.93;;;3.00;99.90;;;;;;4972824;28;20264;-67
2021/11/29 08:13:18;;;;;;;3.73;2.17;;;3.10;99.90;;;;;;4972808;28;20284;-69
2021/11/29 08:15:45;;;;;;;5.17;1.70;;;3.20;99.90;;;;;;4973073;28;20327;-67
2021/11/29 08:18:12;;;;;;;3.47;2.90;;;3.30;99.90;;;;;;4973437;28;20267;-67
2021/11/29 08:20:39;;;;;;;3.80;2.30;;;3.30;99.90;;;;;;4972801;28;20214;-67
2021/11/29 08:23:09;;;;;;;4.97;2.20;;;3.30;99.90;;;;;;4972720;28;20752;-68
2021/11/29 08:25:36;;;;;;;3.17;1.97;;;3.40;99.90;;;;;;4972672;28;20659;-67
2021/11/29 08:28:03;;;;;;;12.00;2.40;;;3.50;99.90;;;;;;4972516;28;20236;-76
2021/11/29 08:30:30;;;;;;;2.23;1.50;;;3.60;99.90;;;;;;4972253;28;20213;-73
2021/11/29 08:32:57;;;;;;;9.90;2.83;;;3.60;99.90;;;;;;4972607;28;20202;-69
2021/11/29 08:35:25;;;;;;;2.47;1.77;;;3.80;99.90;;;;;;4972224;28;20622;-70
2021/11/29 08:37:54;;;;;;;5.37;1.67;;;3.80;99.90;;;;;;4972900;28;20213;-70
2021/11/29 08:40:26;;;;;;;3.07;1.83;;;3.90;99.90;;;;;;4972152;28;20217;-71
2021/11/29 08:42:54;;;;;;;2.87;1.37;;;4.00;99.90;;;;;;4972443;28;20198;-72
2021/11/29 08:45:21;;;;;;;7.00;2.43;;;4.00;99.90;;;;;;4971750;28;20217;-70
2021/11/29 08:47:48;;;;;;;5.03;1.70;;;4.00;99.90;;;;;;4972411;28;20221;-68
2021/11/29 08:50:15;;;;;;;6.03;1.70;;;4.10;99.90;;;;;;4972565;28;20209;-73
2021/11/29 08:52:44;;;;;;;4.57;2.23;;;4.20;99.90;;;;;;4972259;28;20264;-70
2021/11/29 08:55:11;;;;;;;4.27;1.43;;;4.20;99.90;;;;;;4972319;28;20670;-70
2021/11/29 08:57:40;;;;;;;6.30;1.77;;;4.30;99.90;;;;;;4971291;28;20205;-68
2021/11/29 09:00:10;;;;;;;3.40;1.57;;;4.40;99.90;;;;;;4972550;28;20535;-68
2021/11/29 09:02:38;;;;;;;6.17;2.30;;;4.50;99.90;;;;;;4971863;28;21246;-68
2021/11/29 09:05:06;;;;;;;3.90;1.53;;;4.60;99.90;;;;;;4972270;28;20213;-67
2021/11/29 09:07:34;;;;;;;3.80;1.37;;;4.60;99.90;;;;;;4971680;28;20206;-68
2021/11/29 09:10:01;;;;;;;6.60;1.60;;;4.60;99.90;;;;;;4972071;28;20601;-77
2021/11/29 09:12:28;;;;;;;2.67;1.97;;;4.60;99.90;;;;;;4971525;28;20214;-74
2021/11/29 09:14:57;;;;;;;3.30;1.17;;;4.60;99.90;;;;;;4972001;28;20237;-74
2021/11/29 09:17:25;;;;;;;4.27;1.57;;;4.60;99.90;;;;;;4971762;28;20268;-74
2021/11/29 09:19:53;;;;;;;1.97;1.63;;;4.60;99.90;;;;;;4971976;28;20213;-76
2021/11/29 09:22:20;;;;;;;3.27;1.43;;;4.80;99.90;;;;;;4971680;28;20206;-72
2021/11/29 09:24:47;;;;;;;4.33;1.00;;;4.90;99.90;;;;;;4972199;28;20264;-67
2021/11/29 09:27:14;;;;;;;5.33;1.13;;;5.00;99.90;;;;;;4972278;28;20232;-73
2021/11/29 09:29:45;;;;;;;2.23;1.33;;;5.00;99.90;;;;;;4971800;28;20217;-76
2021/11/29 09:32:13;;;;;;;3.17;1.20;;;5.00;99.90;;;;;;4971747;28;20206;-77
2021/11/29 09:34:40;;;;;;;5.50;2.13;;;4.90;99.90;;;;;;4971677;28;20291;-75
2021/11/29 09:37:07;;;;;;;7.73;1.67;;;4.90;99.90;;;;;;4971740;28;20206;-70
2021/11/29 09:39:34;;;;;;;3.70;1.57;;;4.90;99.90;;;;;;4971156;28;20209;-68
2021/11/29 09:42:01;;;;;;;6.10;2.50;;;5.00;99.90;;;;;;4971788;28;20260;-73
2021/11/29 09:44:28;;;;;;;13.50;3.10;;;5.20;99.90;;;;;;4971483;28;20304;-72
2021/11/29 09:46:55;;;;;;;4.07;1.60;;;5.30;99.90;;;;;;4971657;28;20213;-76
2021/11/29 09:49:28;;;;;;;5.57;1.90;;;5.30;99.90;;;;;;4971378;28;20202;-73
2021/11/29 09:52:11;;;;;;;13.67;3.80;;;5.40;99.90;;;;;;4971451;28;20289;-73
2021/11/29 09:54:38;;;;;;;10.50;3.03;;;5.30;99.90;;;;;;4970798;28;20729;-74
2021/11/29 09:57:05;;;;;;;5.07;2.20;;;5.30;99.90;;;;;;4971660;28;20205;-76
2021/11/29 09:59:32;;;;;;;7.57;2.27;;;5.50;99.90;;;;;;4971280;28;20233;-74
2021/11/29 10:01:59;;;;;;;6.53;1.83;;;5.60;99.90;;;;;;4971464;28;20225;-73
2021/11/29 10:04:27;;;;;;;7.30;1.63;;;5.40;99.90;;;;;;4971116;28;20288;-71
2021/11/29 10:06:55;;;;;;;5.03;1.40;;;5.30;99.90;;;;;;4971696;28;20205;-71
2021/11/29 10:09:31;;;;;;;6.87;2.23;;;5.30;99.90;;;;;;4971016;28;20206;-74
2021/11/29 10:12:01;;;;;;;9.13;3.73;;;5.30;99.90;;;;;;4975155;28;20616;-73
2021/11/29 10:14:28;;;;;;;7.33;1.53;;;5.10;99.90;;;;;;4974477;28;20295;-75
2021/11/29 10:17:00;;;;;;;3.23;1.37;;;5.00;99.90;;;;;;4975199;28;20209;-72
2021/11/29 10:19:37;;;;;;;4.57;2.60;;;5.00;99.90;;;;;;4974875;28;20260;-74
2021/11/29 10:22:17;;;;;;;15.90;3.60;;;5.10;99.90;;;;;;4975238;28;20261;-72
2021/11/29 10:24:47;;;;;;;2.70;2.50;;;5.10;99.90;;;;;;4974890;28;20213;-69
2021/11/29 10:27:14;;;;;;;4.10;1.77;;;5.00;99.90;;;;;;4975363;28;20666;-73
2021/11/29 10:29:50;;;;;;;4.13;1.73;;;4.90;99.90;;;;;;4974917;28;20276;-73
2021/11/29 10:32:30;;;;;;;6.27;1.67;;;4.80;99.90;;;;;;4975049;28;20201;-67
2021/11/29 10:34:58;;;;;;;3.27;2.00;;;5.10;99.90;;;;;;4974856;28;20284;-73
2021/11/29 10:37:28;;;;;;;4.70;1.83;;;5.00;99.90;;;;;;4974280;28;20261;-70
2021/11/29 10:39:56;;;;;;;4.43;2.03;;;5.00;99.90;;;;;;4975066;28;20206;-74
2021/11/29 10:42:26;;;;;;;5.20;3.30;;;5.20;99.90;;;;;;4974068;28;20700;-73
2021/11/29 10:44:54;;;;;;;3.20;1.97;;;5.30;99.90;;;;;;4974946;28;20229;-74
2021/11/29 10:47:24;;;;;;;2.23;1.87;;;5.20;99.90;;;;;;4974077;28;20268;-76
2021/11/29 10:49:54;;;;;;;9.77;2.83;;;5.40;99.90;;;;;;4974673;28;20213;-74
2021/11/29 10:52:25;;;;;;;5.13;2.30;;;5.40;99.90;;;;;;4973920;28;20209;-71
2021/11/29 10:54:53;;;;;;;4.07;2.63;;;6.00;99.90;;;;;;4974744;28;20265;-72
2021/11/29 10:57:22;;;;;;;5.73;2.60;;;6.00;99.90;;;;;;4974110;28;20210;-69
2021/11/29 10:59:51;;;;;;;7.00;3.77;;;6.10;99.90;;;;;;4974283;28;20214;-73
2021/11/29 11:02:20;;;;;;;6.33;4.37;;;6.10;99.90;;;;;;4974011;28;20756;-73
2021/11/29 11:04:49;;;;;;;6.73;2.80;;;6.10;99.90;;;;;;4975017;28;20213;-77
2021/11/29 11:07:21;;;;;;;4.87;2.10;;;5.90;99.90;;;;;;4974474;28;20268;-76
2021/11/29 11:09:52;;;;;;;4.97;3.50;;;6.00;99.90;;;;;;4974336;28;20209;-73
2021/11/29 11:12:20;;;;;;;5.97;2.67;;;6.00;99.90;;;;;;4973996;28;20555;-71
2021/11/29 11:14:53;;;;;;;8.20;2.40;;;6.20;99.90;;;;;;4973881;28;20276;-73
2021/11/29 11:17:21;;;;;;;4.07;1.90;;;6.40;99.90;;;;;;4973940;28;20320;-72
2021/11/29 11:19:50;;;;;;;3.60;1.70;;;6.50;99.90;;;;;;4973915;28;20205;-76
2021/11/29 11:22:20;;;;;;;3.97;2.10;;;6.70;99.90;;;;;;4973029;28;20265;-67
2021/11/29 11:24:50;;;;;;;2.33;1.30;;;6.60;99.90;;;;;;4974062;28;20236;-70
2021/11/29 11:27:20;;;;;;;6.70;1.70;;;6.30;99.90;;;;;;4973900;28;20660;-75
2021/11/29 11:29:50;;;;;;;3.70;1.33;;;6.30;99.90;;;;;;4974237;28;20213;-77
2021/11/29 11:32:33;;;;;;;7.13;2.30;;;6.40;99.90;;;;;;4974242;28;20212;-76
2021/11/29 11:35:04;;;;;;;4.27;1.53;;;6.50;99.90;;;;;;4973593;28;20596;-75
2021/11/29 11:37:34;;;;;;;5.40;1.87;;;6.60;99.90;;;;;;4973401;28;20206;-76
2021/11/29 11:40:01;;;;;;;4.40;2.43;;;6.40;99.90;;;;;;4973762;28;20288;-75
2021/11/29 11:42:30;;;;;;;2.90;1.53;;;6.20;99.90;;;;;;4973383;28;20627;-75
2021/11/29 11:44:58;;;;;;;3.47;1.43;;;6.10;99.90;;;;;;4973752;28;20609;-75
2021/11/29 11:47:27;;;;;;;3.40;1.30;;;6.30;99.90;;;;;;4972755;28;20743;-73
2021/11/29 11:49:55;;;;;;;7.13;1.80;;;6.50;99.90;;;;;;4973441;28;20212;-77
2021/11/29 11:52:22;;;;;;;2.50;1.73;;;6.60;99.90;;;;;;4972775;28;20210;-76
2021/11/29 11:54:52;;;;;;;4.00;2.17;;;6.30;99.90;;;;;;4973403;28;20237;-76
2021/11/29 11:57:21;;;;;;;8.83;2.27;;;6.30;99.90;;;;;;4972985;28;20296;-68
2021/11/29 12:00:03;;;;;;;4.93;1.40;;;6.40;99.90;;;;;;4973313;28;20264;-75
2021/11/29 12:02:57;;;;;;;3.47;1.40;;;6.20;99.90;;;;;;4972784;28;20596;-77
2021/11/29 12:05:28;;;;;;;5.03;1.40;;;6.50;99.90;;;;;;4972674;28;20216;-78
2021/11/29 12:07:56;;;;;;;4.07;1.20;;;6.30;99.90;;;;;;4973011;28;20205;-77
2021/11/29 12:10:38;;;;;;;2.63;1.33;;;6.40;99.90;;;;;;4973050;28;20218;-77
2021/11/29 12:13:08;;;;;;;4.27;1.30;;;6.30;99.90;;;;;;4973367;28;20209;-76
2021/11/29 12:15:46;;;;;;;4.90;1.83;;;5.90;99.90;;;;;;4972612;28;20717;-73
2021/11/29 12:18:16;;;;;;;4.17;1.50;;;5.70;99.90;;;;;;4959954;28;20723;-75
2021/11/29 12:21:12;;;;;;;6.23;1.83;;;5.40;99.90;;;;;;4973124;28;20205;-70
2021/11/29 12:23:43;;;;;;;4.07;1.57;;;5.40;99.90;;;;;;4972232;28;20214;-75
2021/11/29 12:26:11;;;;;;;7.03;1.50;;;5.70;99.90;;;;;;4972905;28;20213;-72
2021/11/29 12:28:40;;;;;;;4.03;2.60;;;5.60;99.90;;;;;;4972198;28;20256;-75
2021/11/29 12:31:36;;;;;;;5.30;1.97;;;5.50;99.90;;;;;;4972793;28;20210;-76
2021/11/29 12:34:08;;;;;;;3.27;1.63;;;5.40;99.90;;;;;;4971968;28;20209;-76
2021/11/29 12:37:11;;;;;;;6.90;2.67;;;5.40;99.90;;;;;;4972511;28;20256;-75
2021/11/29 12:39:55;;;;;;;3.33;2.30;;;5.80;99.90;;;;;;4972302;28;20310;-72
2021/11/29 12:42:51;;;;;;;4.43;2.00;;;5.70;99.90;;;;;;4972137;28;20202;-74
2021/11/29 12:45:20;;;;;;;3.57;2.20;;;5.80;99.90;;;;;;4972510;28;20217;-70
2021/11/29 12:47:52;;;;;;;5.73;2.50;;;5.80;99.90;;;;;;4972208;28;20220;-70
2021/11/29 12:50:35;;;;;;;5.87;2.00;;;5.70;99.90;;;;;;4971904;28;20290;-67
2021/11/29 12:53:37;;;;;;;4.70;2.47;;;5.80;99.90;;;;;;4972329;28;20209;-74
2021/11/29 12:56:31;;;;;;;6.37;2.73;;;5.40;99.90;;;;;;4893974;29;20232;-70
2021/11/29 12:59:04;;;;;;;5.80;2.57;;;5.60;99.90;;;;;;4926371;28;20649;-73
2021/11/29 13:01:37;;;;;;;5.93;3.07;;;5.60;99.90;;;;;;4972131;28;20300;-77
2021/11/29 13:04:22;;;;;;;5.97;3.80;;;5.40;99.90;;;;;;4972064;28;20244;-73
2021/11/29 13:07:00;;;;;;;7.57;3.70;;;5.20;99.90;;;;;;4972192;28;20578;-73